Aérodrome :
LOGIN :

S'inscrire | Disclaimer

   EN    FR    IT 

 










Légende :    VFR   VFR Marginal   IFR   IFR Intensif   IFR Très Intensif
Visi : 
Plafond : 
>= 8 km
>= 3000ft
5 à 8 km
1000 à 3000 ft
1500m à 5 km
500 à 1000 ft
800 à 1500m
200 à 500 ft
< 800m
< 200 ft
Symboles :   Orages  Brouillard  Fortes neiges  Fortes précipitations  Vent > 20 kt
SIGMETs :   Divers  Orages  Givrage  Turbulence  Onde Orograph.  Cendres Volcan.







- Altitude de l'aérodrome : 1247 ft
- Code IATA : PRG


LKPR - Praha Ruzyne

DERNIER METAR :
  • 171000Z 25011KT 9999 SCT035 15/06 Q1017 NOSIG

METARs EXPIRÉS :
  • 170930Z 27008KT 240V310 9999 SCT030 14/07 Q1017 NOSIG
  • 170900Z 29010KT 9999 BKN030 14/07 Q1017 NOSIG
  • 170830Z 28010KT 9999 FEW022 BKN040 14/07 Q1017 NOSIG
  • 170800Z 29008KT 9999 FEW020 BKN040 13/09 Q1017 NOSIG
  • 170730Z 27007KT 9999 FEW017 BKN039 12/09 Q1017 NOSIG

TAF TAF LKPR
Valide du 17 à 06h jusqu'au 18 à 12h UTC


170500Z 1706/1812 35006KT 9999 BKN035
TEMPO 1706/1708 9999 BKN014
BECMG 1710/1712 30014KT
TEMPO 1713/1800 31014G26KT
PROB30
TEMPO 1718/1722 29020G36KT -SHRA BKN025
BECMG 1722/1800 CAVOK
TEMPO 1809/1812 9999 BKN045
Pas de NOTAMs connus pour ce terrain.



MET'MAP, la Météo Aéronautique d'un coup d'oeil ! - Copyright ORBIFLY Décembre 2007 - Disclaimer

ORBIFLY MET'MAP TEAM :

Programmation & Développement : Alexandra Zaïnal
Conception & Développement : Baudouin d'Aumeries
Co-Programmation & Développement : Marc-Olivier Méhu
Soutien technique & logistique : Manuel Goepfert

Contact : metmap@orbifly.com




SOURCES & CREDITS :

   NOAA